Golf Manor, Ohio
Current Conditions -  °F | °C
As of 3:53 PM on Thursday 18 Dec 2014 (Local Time) from KLUK Reporting Station
Overcast Overcast  
Wind Chill: 30°   Ceiling: 2800
Heat Index: 30°   Visibility: 10mi
Dew Point: 19°   Wind: 3mph
Humidity: 64%   Direction: 10°N
Pressure: 30.25"   Gusts: NA
Location:  39.1936°N, 84.4486°W
Report Text: KLUK 182053Z 01003KT 10SM BKN028 OVC095 M01/M07 A3025 RMK AO2 SNB08E17 SLP248 P0000 60000 T10111072 55012
Loading
Personal Weather Stations






























Interactive Weather Map New forecast layout! Learn more

10-Day Weather Forecast

Advertisements
Track Severe Weather on mobile